Kirby Muxloe, United Kingdom
Current Conditions -  °F | °C
As of 10:20 AM on Saturday 20 Dec 2014 (Local Time) from EGNX Reporting Station
Rain Showers Rain Showers  
Wind Chill: 35°   Ceiling: 3500
Heat Index: 45°   Visibility: 6mi
Dew Point: 39°   Wind: 25mph
Humidity: 81%   Direction: 270°W
Pressure: 30.21"   Gusts: NA
Location:  52.63°N, 1.23°W
Report Text: EGNX 201020Z 27022KT 9999 SHRA FEW012 BKN035 07/04 Q1023 RERA
Loading
Personal Weather Stations






























Interactive Weather Map New forecast layout! Learn more

10-Day Weather Forecast

Advertisements
Track Severe Weather on mobile